createdAt,value
2022-10-28T00:03:43.644Z,0.107
2022-10-28T00:08:43.597Z,0.114
2022-10-28T00:13:43.137Z,0.107
2022-10-28T00:18:43.579Z,0.114
2022-10-28T00:23:43.599Z,0.099
2022-10-28T00:28:43.646Z,0.112
2022-10-28T00:33:43.645Z,0.104
2022-10-28T00:38:44.272Z,0.095
2022-10-28T00:43:43.650Z,0.114
2022-10-28T00:48:43.672Z,0.108
2022-10-28T00:53:43.091Z,0.092
2022-10-28T00:58:43.069Z,0.104
2022-10-28T01:03:43.844Z,0.109
2022-10-28T01:08:44.369Z,0.106
2022-10-28T01:13:44.234Z,0.1
2022-10-28T01:18:43.646Z,0.1
2022-10-28T01:23:43.125Z,0.088
2022-10-28T01:28:43.719Z,0.102
2022-10-28T01:33:44.259Z,0.109
2022-10-28T01:38:44.391Z,0.098
2022-10-28T01:43:44.272Z,0.097
2022-10-28T01:48:44.074Z,0.097
2022-10-28T01:53:43.358Z,0.116
2022-10-28T01:58:43.185Z,0.114
2022-10-28T02:03:43.861Z,0.105
2022-10-28T02:08:43.867Z,0.104
2022-10-28T02:13:44.467Z,0.101
2022-10-28T02:18:45.667Z,0.105
2022-10-28T02:23:43.247Z,0.104
2022-10-28T02:28:43.760Z,0.098
2022-10-28T02:33:44.556Z,0.089
2022-10-28T02:38:43.791Z,0.095
2022-10-28T02:43:43.818Z,0.112
2022-10-28T02:48:43.406Z,0.105
2022-10-28T02:53:43.264Z,0.089
2022-10-28T02:58:43.831Z,0.112
2022-10-28T03:03:43.824Z,0.114
2022-10-28T03:08:44.478Z,0.09
2022-10-28T03:13:43.394Z,0.101
2022-10-28T03:18:43.934Z,0.104
2022-10-28T03:23:43.924Z,0.115
2022-10-28T03:28:43.905Z,0.112
2022-10-28T03:33:43.885Z,0.099
2022-10-28T03:38:43.498Z,0.111
2022-10-28T03:43:44.546Z,0.1
2022-10-28T03:48:44.030Z,0.096
2022-10-28T03:53:44.002Z,0.105
2022-10-28T03:58:43.484Z,0.107
2022-10-28T04:03:43.421Z,0.092
2022-10-28T04:08:44.560Z,0.088
2022-10-28T04:13:43.967Z,0.113
2022-10-28T04:18:43.953Z,0.106
2022-10-28T04:23:43.989Z,0.095
2022-10-28T04:28:44.045Z,0.095
2022-10-28T04:33:44.106Z,0.118
2022-10-28T04:38:43.473Z,0.095
2022-10-28T04:43:43.607Z,0.087
2022-10-28T04:48:43.507Z,0.094
2022-10-28T04:53:43.514Z,0.093
2022-10-28T04:58:43.515Z,0.117
2022-10-28T05:03:43.563Z,0.097
2022-10-28T05:08:44.181Z,0.095
2022-10-28T05:13:44.183Z,0.107
2022-10-28T05:23:44.339Z,0.104
2022-10-28T05:28:44.818Z,0.099
2022-10-28T05:33:43.569Z,0.095
2022-10-28T05:38:44.248Z,0.108
2022-10-28T05:43:44.258Z,0.08
2022-10-28T05:48:44.856Z,0.092
2022-10-28T05:53:44.253Z,0.109
2022-10-28T05:58:44.278Z,0.125
2022-10-28T06:03:44.337Z,0.085
2022-10-28T06:08:43.685Z,0.1
2022-10-28T06:13:42.685Z,0.107
2022-10-28T06:18:42.672Z,0.104
2022-10-28T06:23:43.382Z,0.104
2022-10-28T06:28:42.792Z,0.105
2022-10-28T06:33:42.198Z,0.123
2022-10-28T06:38:42.206Z,0.113
2022-10-28T06:43:42.850Z,0.108
2022-10-28T06:48:44.981Z,0.101
2022-10-28T06:53:43.740Z,0.109
2022-10-28T06:58:44.295Z,0.098
2022-10-28T07:03:43.873Z,0.11
2022-10-28T07:08:43.800Z,0.101
2022-10-28T07:13:46.568Z,0.102
2022-10-28T07:18:46.258Z,0.102
2022-10-28T07:23:43.933Z,0.095
2022-10-28T07:28:44.344Z,0.105
2022-10-28T07:33:43.850Z,0.124
2022-10-28T07:38:44.359Z,0.106
2022-10-28T07:43:44.391Z,0.107
2022-10-28T07:48:46.341Z,0.103
2022-10-28T07:53:44.465Z,0.1
2022-10-28T07:58:43.904Z,0.105
2022-10-28T08:03:44.412Z,0.087
2022-10-28T08:08:44.445Z,0.102
2022-10-28T08:13:45.006Z,0.115
2022-10-28T08:18:44.394Z,0.065
2022-10-28T08:23:44.421Z,0.086
2022-10-28T08:28:44.446Z,0.112
2022-10-28T08:33:44.454Z,0.09
2022-10-28T08:38:45.611Z,0.1
2022-10-28T08:43:57.003Z,0.083
2022-10-28T08:48:44.649Z,0.075
2022-10-28T08:53:43.945Z,0.085
2022-10-28T08:58:43.999Z,0.099
2022-10-28T09:03:45.199Z,0.095
2022-10-28T09:08:44.659Z,0.085
2022-10-28T09:13:43.992Z,0.1
2022-10-28T09:18:44.660Z,0.103
2022-10-28T09:23:44.742Z,0.093
2022-10-28T09:28:44.629Z,0.096
2022-10-28T09:33:44.618Z,0.087
2022-10-28T09:38:45.251Z,0.105
2022-10-28T09:43:44.644Z,0.086
2022-10-28T09:48:44.683Z,0.086
2022-10-28T09:53:44.075Z,0.096
2022-10-28T09:58:44.679Z,0.104
2022-10-28T10:03:44.623Z,0.062
2022-10-28T10:08:45.362Z,0.051
2022-10-28T10:13:45.442Z,0.03
2022-10-28T10:18:44.637Z,0.029
2022-10-28T10:23:45.228Z,0.024
2022-10-28T10:28:44.682Z,0.025
2022-10-28T10:33:44.868Z,0.038
2022-10-28T10:38:45.352Z,0.031
2022-10-28T10:43:44.785Z,0.022
2022-10-28T10:48:44.213Z,0.022
2022-10-28T10:53:44.200Z,0.028
2022-10-28T10:58:44.201Z,0.029
2022-10-28T11:03:45.067Z,0.07
2022-10-28T11:08:44.882Z,0.088
2022-10-28T11:13:45.972Z,0.075
2022-10-28T11:18:44.877Z,0.055
2022-10-28T11:23:44.990Z,0.026
2022-10-28T11:28:45.492Z,0.027
2022-10-28T11:33:45.477Z,0.09
2022-10-28T11:38:46.032Z,0.106
2022-10-28T11:43:44.902Z,0.105
2022-10-28T11:48:44.940Z,0.11
2022-10-28T11:53:44.305Z,0.105
2022-10-28T11:58:44.349Z,0.102
2022-10-28T12:03:44.819Z,0.111
2022-10-28T12:08:44.856Z,0.103
2022-10-28T12:13:44.878Z,0.092
2022-10-28T12:18:44.851Z,0.095
2022-10-28T12:23:44.353Z,0.115
2022-10-28T12:28:45.014Z,0.094
2022-10-28T12:33:44.993Z,0.091
2022-10-28T12:38:45.065Z,0.112
2022-10-28T12:43:44.923Z,0.093
2022-10-28T12:48:44.965Z,0.095
2022-10-28T12:53:44.448Z,0.095
2022-10-28T12:58:44.508Z,0.115
2022-10-28T13:03:44.458Z,0.09
2022-10-28T13:08:45.041Z,0.106
2022-10-28T13:13:45.128Z,0.085
2022-10-28T13:18:44.442Z,0.095
2022-10-28T13:23:44.953Z,0.099
2022-10-28T13:28:45.645Z,0.115
2022-10-28T13:33:45.150Z,0.096
2022-10-28T13:38:45.618Z,0.089
2022-10-28T13:43:45.005Z,0.072
2022-10-28T13:48:45.675Z,0.055
2022-10-28T13:53:44.515Z,0.113
2022-10-28T13:58:44.517Z,0.095
2022-10-28T14:03:44.720Z,0.1
2022-10-28T14:08:45.070Z,0.109
2022-10-28T14:13:45.688Z,0.112
2022-10-28T14:18:45.626Z,0.098
2022-10-28T14:23:45.122Z,0.102
2022-10-28T14:28:44.627Z,0.094
2022-10-28T14:33:44.660Z,0.103
2022-10-28T14:38:45.128Z,0.092
2022-10-28T14:43:45.117Z,0.103
2022-10-28T14:48:45.855Z,0.098
2022-10-28T14:53:45.123Z,0.095
2022-10-28T14:58:45.139Z,0.107
2022-10-28T15:03:44.667Z,0.115
2022-10-28T15:08:45.161Z,0.093
2022-10-28T15:13:45.272Z,0.095
2022-10-28T15:18:45.824Z,0.097
2022-10-28T15:23:46.186Z,0.115
2022-10-28T15:28:45.245Z,0.097
2022-10-28T15:33:44.682Z,0.096
2022-10-28T15:38:45.234Z,0.106
2022-10-28T15:43:45.845Z,0.1
2022-10-28T15:48:45.262Z,0.104
2022-10-28T15:53:45.222Z,0.116
2022-10-28T15:58:44.782Z,0.132
2022-10-28T16:03:45.323Z,0.087
2022-10-28T16:08:46.220Z,0.106
2022-10-28T16:13:45.287Z,0.103
2022-10-28T16:18:44.818Z,0.106
2022-10-28T16:23:45.425Z,0.098
2022-10-28T16:28:45.558Z,0.102
2022-10-28T16:33:45.332Z,0.104
2022-10-28T16:38:45.342Z,0.12
2022-10-28T16:43:45.511Z,0.109
2022-10-28T16:48:45.446Z,0.099
2022-10-28T16:53:44.864Z,0.107
2022-10-28T16:58:44.843Z,0.125
2022-10-28T17:03:45.381Z,0.092
2022-10-28T17:13:45.434Z,0.103
2022-10-28T17:18:46.014Z,0.089
2022-10-28T17:23:45.447Z,0.116
2022-10-28T17:28:46.099Z,0.109
2022-10-28T17:33:45.504Z,0.103
2022-10-28T17:38:45.423Z,0.103
2022-10-28T17:43:46.093Z,0.115
2022-10-28T17:48:45.473Z,0.087
2022-10-28T17:53:45.001Z,0.116
2022-10-28T17:58:44.996Z,0.111
2022-10-28T18:03:45.524Z,0.103
2022-10-28T18:08:45.549Z,0.123
2022-10-28T18:13:45.573Z,0.095
2022-10-28T18:18:45.031Z,0.096
2022-10-28T18:23:45.885Z,0.107
2022-10-28T18:28:45.542Z,0.102
2022-10-28T18:33:46.189Z,0.105
2022-10-28T18:38:46.149Z,0.108
2022-10-28T18:43:45.052Z,0.082
2022-10-28T18:48:45.111Z,0.131
2022-10-28T18:53:45.134Z,0.103
2022-10-28T18:58:45.124Z,0.116
2022-10-28T19:03:45.635Z,0.09
2022-10-28T19:08:45.675Z,0.112
2022-10-28T19:13:45.671Z,0.117
2022-10-28T19:18:45.695Z,0.094
2022-10-28T19:23:45.116Z,0.101
2022-10-28T19:28:45.182Z,0.103
2022-10-28T19:33:45.689Z,0.093
2022-10-28T19:38:45.832Z,0.108
2022-10-28T19:43:45.742Z,0.106
2022-10-28T19:48:46.333Z,0.119
2022-10-28T19:53:45.224Z,0.11
2022-10-28T19:58:45.205Z,0.113
2022-10-28T20:03:49.119Z,0.099
2022-10-28T20:08:45.867Z,0.094
2022-10-28T20:13:49.163Z,0.095
2022-10-28T20:18:45.243Z,0.096
2022-10-28T20:23:45.907Z,0.105
2022-10-28T20:28:45.956Z,0.105
2022-10-28T20:33:45.891Z,0.097
2022-10-28T20:38:45.269Z,0.096
2022-10-28T20:43:45.943Z,0.102
2022-10-28T20:48:45.948Z,0.084
2022-10-28T20:53:45.305Z,0.105
2022-10-28T20:58:45.338Z,0.109
2022-10-28T21:03:45.359Z,0.102
2022-10-28T21:08:45.396Z,0.073
2022-10-28T21:13:46.528Z,0.114
2022-10-28T21:18:45.349Z,0.097
2022-10-28T21:23:46.593Z,0.108
2022-10-28T21:28:46.074Z,0.101
2022-10-28T21:33:45.945Z,0.087
2022-10-28T21:38:45.893Z,0.107
2022-10-28T21:43:46.643Z,0.111
2022-10-28T21:48:46.714Z,0.105
2022-10-28T21:53:45.916Z,0.1
2022-10-28T21:58:45.930Z,0.096
2022-10-28T22:03:45.458Z,0.105
2022-10-28T22:08:46.056Z,0.109
2022-10-28T22:13:46.055Z,0.098
2022-10-28T22:18:45.526Z,0.099
2022-10-28T22:23:45.494Z,0.114
2022-10-28T22:28:46.723Z,0.11
2022-10-28T22:38:45.624Z,0.095
2022-10-28T22:43:46.286Z,0.108
2022-10-28T22:48:45.647Z,0.095
2022-10-28T22:53:46.144Z,0.096
2022-10-28T22:58:45.573Z,0.094
2022-10-28T23:03:45.582Z,0.101
2022-10-28T23:08:46.247Z,0.11
2022-10-28T23:13:46.795Z,0.093
2022-10-28T23:18:46.199Z,0.11
2022-10-28T23:23:49.599Z,0.106
2022-10-28T23:28:49.292Z,0.096
2022-10-28T23:33:53.462Z,0.1
2022-10-28T23:38:46.884Z,0.111
2022-10-28T23:43:45.625Z,0.096
2022-10-28T23:48:46.301Z,0.097
2022-10-28T23:53:45.677Z,0.12
2022-10-28T23:58:45.701Z,0.098
